createdAt,value
2022-11-16T00:00:38.424Z,11.30
2022-11-16T00:03:09.613Z,11.30
2022-11-16T00:05:40.532Z,11.30
2022-11-16T00:08:11.371Z,11.30
2022-11-16T00:10:42.236Z,11.30
2022-11-16T00:13:13.083Z,11.30
2022-11-16T00:15:43.958Z,11.30
2022-11-16T00:18:14.820Z,11.40
2022-11-16T00:20:45.735Z,11.40
2022-11-16T00:23:17.510Z,11.50
2022-11-16T00:25:49.048Z,11.50
2022-11-16T00:28:19.961Z,11.60
2022-11-16T00:30:59.926Z,11.60
2022-11-16T00:33:31.467Z,11.70
2022-11-16T00:36:04.354Z,11.60
2022-11-16T00:38:35.612Z,11.50
2022-11-16T00:41:07.787Z,11.50
2022-11-16T00:43:38.805Z,11.40
2022-11-16T00:46:10.015Z,11.30
2022-11-16T00:48:40.886Z,11.30
2022-11-16T00:51:11.874Z,11.30
2022-11-16T00:53:42.770Z,11.30
2022-11-16T00:56:13.655Z,11.30
2022-11-16T00:58:44.511Z,11.30
2022-11-16T01:01:15.678Z,11.30
2022-11-16T01:03:47.759Z,11.40
2022-11-16T01:06:18.894Z,11.40
2022-11-16T01:08:50.304Z,11.30
2022-11-16T01:11:39.837Z,11.20
2022-11-16T01:14:11.686Z,11.20
2022-11-16T01:16:42.561Z,11.20
2022-11-16T01:19:13.392Z,11.20
2022-11-16T01:21:44.283Z,11.20
2022-11-16T01:24:15.188Z,11.20
2022-11-16T01:26:46.192Z,11.30
2022-11-16T01:29:17.373Z,11.20
2022-11-16T01:31:48.252Z,11.30
2022-11-16T01:34:19.126Z,11.30
2022-11-16T01:36:50.057Z,11.40
2022-11-16T01:39:21.076Z,11.40
2022-11-16T01:41:51.951Z,11.40
2022-11-16T01:44:31.697Z,11.30
2022-11-16T01:47:10.220Z,11.30
2022-11-16T01:49:53.358Z,11.10
2022-11-16T01:52:30.434Z,11.10
2022-11-16T01:55:02.381Z,11.10
2022-11-16T01:57:40.413Z,11.10
2022-11-16T02:00:13.650Z,11.10
2022-11-16T02:02:44.693Z,11.10
2022-11-16T02:05:22.042Z,11.10
2022-11-16T02:08:40.569Z,11.00
2022-11-16T02:11:25.433Z,10.90
2022-11-16T02:14:09.542Z,10.80
2022-11-16T02:17:01.701Z,10.90
2022-11-16T02:20:08.847Z,11.00
2022-11-16T02:23:31.415Z,11.00
2022-11-16T02:26:58.801Z,10.90
2022-11-16T02:29:46.117Z,10.90
2022-11-16T02:32:59.345Z,11.10
2022-11-16T02:35:42.733Z,11.10
2022-11-16T02:38:28.266Z,11.20
2022-11-16T02:41:05.975Z,11.10
2022-11-16T02:43:43.865Z,11.00
2022-11-16T02:46:24.190Z,10.90
2022-11-16T02:49:01.066Z,11.00
2022-11-16T02:51:34.206Z,10.90
2022-11-16T02:54:13.025Z,10.90
2022-11-16T02:56:58.914Z,10.80
2022-11-16T02:59:43.336Z,10.80
2022-11-16T03:03:13.543Z,10.80
2022-11-16T03:06:01.783Z,10.80
2022-11-16T03:08:39.813Z,10.80
2022-11-16T03:11:50.306Z,10.80
2022-11-16T03:14:36.283Z,10.80
2022-11-16T03:17:38.526Z,10.80
2022-11-16T03:20:16.254Z,10.80
2022-11-16T03:22:57.846Z,10.90
2022-11-16T03:25:36.066Z,10.80
2022-11-16T03:28:25.344Z,10.70
2022-11-16T03:31:02.567Z,10.70
2022-11-16T03:33:41.152Z,10.70
2022-11-16T03:36:28.511Z,10.70
2022-11-16T03:39:04.817Z,10.70
2022-11-16T03:41:40.370Z,10.80
2022-11-16T03:44:14.073Z,10.80
2022-11-16T03:46:46.904Z,10.80
2022-11-16T03:49:22.673Z,10.60
2022-11-16T03:51:53.549Z,10.60
2022-11-16T03:54:24.456Z,10.60
2022-11-16T03:56:55.301Z,10.80
2022-11-16T03:59:26.161Z,10.70
2022-11-16T04:01:56.996Z,10.70
2022-11-16T04:04:46.228Z,10.70
2022-11-16T04:07:35.753Z,10.80
2022-11-16T04:10:39.603Z,10.80
2022-11-16T04:13:31.404Z,11.00
2022-11-16T04:16:20.537Z,11.20
2022-11-16T04:19:09.876Z,11.10
2022-11-16T04:22:10.031Z,11.10
2022-11-16T04:24:44.632Z,11.20
2022-11-16T04:27:34.801Z,11.20
2022-11-16T04:30:06.672Z,11.20
2022-11-16T04:32:56.387Z,11.30
2022-11-16T04:35:46.006Z,11.30
2022-11-16T04:38:16.884Z,11.20
2022-11-16T04:40:48.036Z,11.10
2022-11-16T04:43:18.943Z,11.00
2022-11-16T04:46:08.274Z,11.10
2022-11-16T04:48:39.133Z,11.00
2022-11-16T04:51:09.993Z,11.10
2022-11-16T04:53:40.854Z,11.10
2022-11-16T04:56:12.524Z,11.20
2022-11-16T04:58:43.379Z,11.10
2022-11-16T05:01:14.856Z,11.10
2022-11-16T05:03:45.752Z,11.10
2022-11-16T05:06:16.774Z,11.10
2022-11-16T05:08:47.639Z,11.10
2022-11-16T05:11:18.513Z,11.10
2022-11-16T05:13:49.362Z,11.10
2022-11-16T05:16:20.300Z,11.10
2022-11-16T05:19:11.133Z,11.10
2022-11-16T05:21:42.235Z,11.10
2022-11-16T05:24:32.029Z,11.10
2022-11-16T05:27:06.329Z,11.10
2022-11-16T05:29:38.369Z,11.20
2022-11-16T05:32:12.519Z,11.20
2022-11-16T05:34:44.472Z,11.10
2022-11-16T05:37:16.497Z,11.10
2022-11-16T05:39:48.266Z,11.20
2022-11-16T05:42:19.224Z,11.10
2022-11-16T05:44:50.096Z,11.20
2022-11-16T05:47:20.989Z,11.30
2022-11-16T05:49:51.909Z,11.20
2022-11-16T05:52:22.824Z,11.20
2022-11-16T05:54:53.755Z,11.20
2022-11-16T05:57:24.624Z,11.20
2022-11-16T05:59:55.477Z,11.10
2022-11-16T06:02:26.327Z,11.20
2022-11-16T06:04:57.198Z,11.10
2022-11-16T06:07:28.841Z,11.10
2022-11-16T06:09:59.751Z,11.20
2022-11-16T06:12:30.600Z,11.20
2022-11-16T06:15:01.469Z,11.10
2022-11-16T06:17:33.860Z,11.10
2022-11-16T06:20:05.316Z,11.00
2022-11-16T06:22:36.169Z,11.00
2022-11-16T06:25:07.457Z,11.00
2022-11-16T06:27:41.069Z,11.00
2022-11-16T06:30:12.095Z,11.00
2022-11-16T06:32:43.040Z,11.20
2022-11-16T06:35:13.964Z,11.30
2022-11-16T06:37:44.807Z,11.30
2022-11-16T06:40:15.897Z,11.20
2022-11-16T06:42:46.733Z,11.20
2022-11-16T06:45:17.718Z,11.20
2022-11-16T06:47:48.594Z,11.30
2022-11-16T06:50:19.747Z,11.30
2022-11-16T06:52:50.669Z,11.30
2022-11-16T06:55:21.529Z,11.30
2022-11-16T06:57:52.387Z,11.30
2022-11-16T07:00:23.379Z,11.40
2022-11-16T07:02:54.709Z,11.40
2022-11-16T07:05:25.620Z,11.40
2022-11-16T07:07:56.795Z,11.40
2022-11-16T07:10:27.763Z,11.40
2022-11-16T07:13:03.496Z,11.40
2022-11-16T07:15:34.435Z,11.30
2022-11-16T07:18:08.516Z,11.30
2022-11-16T07:20:39.420Z,11.30
2022-11-16T07:23:13.945Z,11.40
2022-11-16T07:25:47.239Z,11.40
2022-11-16T07:28:18.164Z,11.60
2022-11-16T07:30:49.176Z,11.70
2022-11-16T07:33:20.097Z,11.80
2022-11-16T07:35:51.343Z,11.80
2022-11-16T07:38:22.176Z,11.90
2022-11-16T07:40:53.062Z,11.90
2022-11-16T07:43:24.021Z,11.90
2022-11-16T07:46:21.343Z,11.80
2022-11-16T07:48:49.540Z,11.80
2022-11-16T07:51:20.545Z,11.90
2022-11-16T07:53:55.974Z,11.90
2022-11-16T07:56:26.874Z,12.00
2022-11-16T07:58:59.089Z,12.00
2022-11-16T08:01:30.023Z,12.00
2022-11-16T08:04:01.897Z,11.90
2022-11-16T08:06:32.967Z,11.90
2022-11-16T08:09:04.060Z,11.90
2022-11-16T08:11:34.998Z,11.80
2022-11-16T08:14:05.888Z,11.80
2022-11-16T08:16:36.818Z,11.80
2022-11-16T08:19:07.645Z,11.70
2022-11-16T08:21:38.524Z,11.80
2022-11-16T08:24:09.660Z,11.90
2022-11-16T08:26:40.611Z,11.90
2022-11-16T08:29:11.765Z,12.10
2022-11-16T08:31:45.201Z,12.10
2022-11-16T08:34:16.506Z,12.20
2022-11-16T08:36:48.182Z,12.20
2022-11-16T08:39:19.353Z,12.40
2022-11-16T08:41:51.075Z,12.40
2022-11-16T08:44:21.947Z,12.50
2022-11-16T08:46:52.888Z,12.50
2022-11-16T08:49:24.006Z,12.60
2022-11-16T08:51:55.016Z,12.60
2022-11-16T08:54:29.389Z,12.60
2022-11-16T08:57:00.382Z,12.60
2022-11-16T08:59:31.251Z,12.70
2022-11-16T09:02:02.184Z,12.80
2022-11-16T09:04:37.019Z,12.80
2022-11-16T09:07:08.280Z,12.70
2022-11-16T09:09:39.191Z,12.70
2022-11-16T09:12:10.121Z,12.70
2022-11-16T09:14:40.975Z,12.80
2022-11-16T09:17:12.046Z,12.70
2022-11-16T09:19:43.095Z,12.70
2022-11-16T09:22:13.966Z,12.70
2022-11-16T09:24:44.844Z,12.70
2022-11-16T09:27:16.870Z,12.60
2022-11-16T09:29:47.748Z,12.60
2022-11-16T09:32:18.713Z,12.70
2022-11-16T09:34:49.788Z,12.80
2022-11-16T09:37:20.717Z,12.80
2022-11-16T09:39:52.338Z,12.80
2022-11-16T09:42:56.121Z,12.90
2022-11-16T09:45:39.026Z,12.90
2022-11-16T09:48:14.908Z,12.90
2022-11-16T09:50:55.283Z,13.00
2022-11-16T09:54:06.700Z,13.00
2022-11-16T09:56:42.814Z,13.00
2022-11-16T09:59:32.682Z,13.00
2022-11-16T10:02:24.950Z,13.00
2022-11-16T10:05:24.817Z,13.20
2022-11-16T10:08:06.731Z,13.30
2022-11-16T10:10:49.977Z,13.30
2022-11-16T10:14:04.216Z,13.20
2022-11-16T10:17:05.084Z,13.20
2022-11-16T10:19:56.252Z,13.20
2022-11-16T10:22:45.949Z,13.40
2022-11-16T10:25:35.989Z,13.80
2022-11-16T10:28:43.851Z,14.00
2022-11-16T10:31:36.390Z,14.00
2022-11-16T10:34:09.692Z,14.10
2022-11-16T10:36:40.643Z,14.20
2022-11-16T10:39:17.110Z,14.50
2022-11-16T10:41:50.949Z,15.00
2022-11-16T10:44:37.987Z,15.10
2022-11-16T10:47:34.744Z,15.10
2022-11-16T10:50:27.437Z,14.70
2022-11-16T10:53:00.153Z,14.70
2022-11-16T10:55:31.192Z,14.90
2022-11-16T10:58:05.565Z,15.10
2022-11-16T11:00:46.509Z,15.40
2022-11-16T11:03:31.287Z,15.30
2022-11-16T11:06:02.507Z,15.50
2022-11-16T11:08:34.051Z,15.80
2022-11-16T11:11:25.205Z,16.10
2022-11-16T11:14:14.586Z,16.10
2022-11-16T11:16:45.590Z,16.00
2022-11-16T11:19:28.517Z,15.90
2022-11-16T11:22:00.948Z,15.80
2022-11-16T11:24:47.800Z,15.70
2022-11-16T11:27:25.256Z,15.30
2022-11-16T11:30:01.320Z,15.50
2022-11-16T11:32:38.935Z,15.60
2022-11-16T11:35:30.986Z,15.90
2022-11-16T11:38:07.934Z,16.00
2022-11-16T11:40:39.099Z,16.30
2022-11-16T11:43:23.735Z,16.40
2022-11-16T11:46:19.264Z,16.30
2022-11-16T11:48:58.426Z,16.40
2022-11-16T11:51:40.069Z,16.60
2022-11-16T11:54:32.338Z,16.80
2022-11-16T11:57:05.653Z,17.10
2022-11-16T11:59:36.554Z,17.00
2022-11-16T12:02:25.787Z,17.10
2022-11-16T12:05:08.518Z,17.20
2022-11-16T12:07:49.284Z,17.10
2022-11-16T12:10:51.138Z,17.00
2022-11-16T12:14:10.399Z,16.80
2022-11-16T12:17:05.532Z,16.40
2022-11-16T12:20:20.361Z,16.00
2022-11-16T12:23:10.333Z,15.70
2022-11-16T12:25:43.992Z,15.60
2022-11-16T12:28:59.405Z,15.40
2022-11-16T12:31:39.313Z,15.30
2022-11-16T12:34:34.505Z,15.50
2022-11-16T12:37:28.027Z,15.20
2022-11-16T12:40:37.901Z,15.10
2022-11-16T12:43:24.479Z,14.90
2022-11-16T12:46:37.169Z,14.80
2022-11-16T12:49:45.986Z,14.80
2022-11-16T12:52:43.925Z,14.90
2022-11-16T12:55:57.327Z,15.00
2022-11-16T12:58:55.227Z,14.80
2022-11-16T13:02:00.787Z,15.00
2022-11-16T13:04:44.934Z,15.30
2022-11-16T13:07:26.069Z,15.50
2022-11-16T13:10:19.605Z,15.70
2022-11-16T13:13:21.890Z,15.70
2022-11-16T13:15:51.681Z,15.50
2022-11-16T13:18:24.351Z,15.30
2022-11-16T13:21:05.976Z,15.10
2022-11-16T13:23:48.673Z,14.90
2022-11-16T13:26:39.783Z,14.90
2022-11-16T13:29:32.608Z,14.90
2022-11-16T13:32:12.482Z,14.90
2022-11-16T13:34:44.221Z,15.10
2022-11-16T13:37:37.008Z,15.40
2022-11-16T13:40:08.601Z,15.50
2022-11-16T13:42:57.552Z,15.60
2022-11-16T13:45:57.167Z,15.60
2022-11-16T13:48:38.100Z,15.50
2022-11-16T13:51:22.953Z,15.40
2022-11-16T13:56:51.618Z,15.40
2022-11-16T13:59:35.255Z,15.30
2022-11-16T14:02:44.738Z,15.20
2022-11-16T14:05:34.240Z,15.10
2022-11-16T14:08:20.340Z,15.20
2022-11-16T14:10:51.160Z,15.10
2022-11-16T14:13:40.852Z,15.00
2022-11-16T14:16:49.630Z,15.10
2022-11-16T14:19:47.670Z,14.90
2022-11-16T14:22:21.271Z,15.10
2022-11-16T14:25:07.341Z,15.20
2022-11-16T14:28:04.249Z,15.20
2022-11-16T14:31:13.757Z,15.10
2022-11-16T14:33:51.828Z,15.10
2022-11-16T14:36:55.536Z,15.10
2022-11-16T14:39:46.229Z,15.20
2022-11-16T14:42:22.737Z,15.20
2022-11-16T14:45:07.229Z,15.10
2022-11-16T14:47:38.533Z,15.00
2022-11-16T14:50:24.605Z,15.00
2022-11-16T14:53:01.785Z,15.00
2022-11-16T14:55:44.077Z,15.10
2022-11-16T14:58:21.311Z,15.00
2022-11-16T15:01:06.214Z,14.90
2022-11-16T15:03:53.400Z,15.00
2022-11-16T15:06:26.808Z,14.90
2022-11-16T15:09:04.799Z,14.90
2022-11-16T15:12:00.130Z,14.80
2022-11-16T15:14:35.510Z,14.80
2022-11-16T15:17:07.952Z,14.80
2022-11-16T15:19:38.810Z,14.70
2022-11-16T15:22:18.369Z,14.70
2022-11-16T15:25:00.901Z,14.50
2022-11-16T15:27:34.780Z,14.40
2022-11-16T15:30:20.363Z,14.30
2022-11-16T15:32:53.352Z,14.10
2022-11-16T15:35:32.994Z,14.00
2022-11-16T15:38:13.968Z,14.00
2022-11-16T15:40:54.891Z,14.00
2022-11-16T15:43:45.107Z,13.90
2022-11-16T15:46:21.509Z,13.70
2022-11-16T15:48:53.570Z,13.60
2022-11-16T15:51:24.621Z,13.40
2022-11-16T15:54:11.338Z,13.30
2022-11-16T15:56:42.540Z,13.20
2022-11-16T15:59:26.846Z,13.00
2022-11-16T16:01:57.934Z,12.90
2022-11-16T16:04:29.161Z,12.80
2022-11-16T16:07:00.834Z,12.70
2022-11-16T16:09:37.412Z,12.70
2022-11-16T16:12:26.363Z,12.60
2022-11-16T16:15:21.837Z,12.40
2022-11-16T16:17:54.587Z,12.30
2022-11-16T16:20:29.467Z,12.20
2022-11-16T16:23:24.298Z,12.10
2022-11-16T16:25:55.693Z,12.00
2022-11-16T16:28:26.527Z,11.90
2022-11-16T16:30:57.465Z,11.70
2022-11-16T16:33:29.782Z,11.60
2022-11-16T16:36:01.703Z,11.50
2022-11-16T16:38:33.107Z,11.50
2022-11-16T16:41:06.246Z,11.40
2022-11-16T16:43:37.739Z,11.30
2022-11-16T16:46:13.159Z,11.80
2022-11-16T16:48:44.910Z,11.80
2022-11-16T16:51:15.837Z,11.60
2022-11-16T16:53:46.771Z,11.50
2022-11-16T16:56:19.696Z,11.40
2022-11-16T16:58:50.607Z,11.30
2022-11-16T17:01:21.806Z,11.30
2022-11-16T17:03:52.749Z,11.30
2022-11-16T17:06:24.683Z,11.20
2022-11-16T17:08:56.702Z,11.20
2022-11-16T17:11:28.877Z,11.10
2022-11-16T17:13:59.874Z,11.00
2022-11-16T17:16:31.156Z,11.00
2022-11-16T17:19:03.137Z,10.90
2022-11-16T17:21:34.058Z,10.90
2022-11-16T17:24:05.614Z,10.80
2022-11-16T17:26:36.779Z,10.70
2022-11-16T17:29:07.717Z,10.60
2022-11-16T17:31:43.402Z,10.60
2022-11-16T17:34:14.663Z,10.50
2022-11-16T17:36:45.690Z,10.50
2022-11-16T17:39:16.786Z,10.40
2022-11-16T17:41:49.969Z,10.40
2022-11-16T17:44:22.053Z,10.30
2022-11-16T17:46:53.255Z,10.30
2022-11-16T17:49:24.196Z,10.30
2022-11-16T17:51:57.281Z,10.30
2022-11-16T17:54:28.777Z,10.40
2022-11-16T17:56:59.748Z,10.40
2022-11-16T17:59:30.666Z,10.50
2022-11-16T18:02:01.502Z,10.50
2022-11-16T18:04:32.568Z,10.60
2022-11-16T18:07:03.724Z,10.60
2022-11-16T18:09:34.612Z,10.60
2022-11-16T18:12:05.647Z,10.60
2022-11-16T18:14:36.509Z,10.60
2022-11-16T18:17:07.359Z,10.60
2022-11-16T18:19:38.369Z,10.60
2022-11-16T18:22:09.281Z,10.60
2022-11-16T18:24:40.195Z,10.60
2022-11-16T18:27:11.211Z,10.60
2022-11-16T18:29:42.087Z,10.60
2022-11-16T18:32:12.909Z,10.60
2022-11-16T18:34:44.110Z,10.60
2022-11-16T18:37:15.126Z,10.60
2022-11-16T18:39:46.031Z,10.70
2022-11-16T18:42:16.959Z,10.70
2022-11-16T18:44:48.363Z,10.70
2022-11-16T18:47:19.299Z,10.70
2022-11-16T18:49:50.315Z,10.70
2022-11-16T18:52:21.847Z,10.80
2022-11-16T18:54:52.834Z,10.80
2022-11-16T18:57:24.899Z,10.80
2022-11-16T18:59:58.051Z,10.70
2022-11-16T19:02:31.801Z,10.70
2022-11-16T19:05:02.699Z,10.70
2022-11-16T19:07:34.117Z,10.60
2022-11-16T19:10:05.623Z,10.60
2022-11-16T19:12:36.479Z,10.50
2022-11-16T19:15:07.792Z,10.50
2022-11-16T19:17:59.295Z,10.40
2022-11-16T19:20:29.594Z,10.40
2022-11-16T19:23:00.490Z,10.20
2022-11-16T19:25:31.442Z,10.20
2022-11-16T19:28:07.459Z,10.20
2022-11-16T19:30:38.452Z,10.20
2022-11-16T19:33:09.317Z,10.20
2022-11-16T19:35:40.218Z,10.10
2022-11-16T19:38:11.190Z,10.00
2022-11-16T19:40:42.111Z,10.20
2022-11-16T19:43:15.539Z,10.30
2022-11-16T19:45:46.432Z,10.20
2022-11-16T19:48:20.348Z,10.10
2022-11-16T19:50:51.320Z,10.00
2022-11-16T19:53:22.143Z,9.90
2022-11-16T19:55:54.825Z,9.80
2022-11-16T19:58:25.766Z,9.70
2022-11-16T20:01:09.681Z,9.70
2022-11-16T20:03:41.947Z,9.60
2022-11-16T20:06:23.154Z,9.80
2022-11-16T20:08:59.090Z,9.90
2022-11-16T20:11:34.145Z,9.90
2022-11-16T20:14:11.566Z,9.90
2022-11-16T20:16:47.177Z,9.90
2022-11-16T20:19:19.811Z,9.80
2022-11-16T20:21:51.121Z,9.70
2022-11-16T20:24:22.170Z,9.70
2022-11-16T20:26:53.116Z,9.60
2022-11-16T20:29:24.450Z,9.50
2022-11-16T20:31:55.339Z,9.50
2022-11-16T20:34:26.194Z,9.60
2022-11-16T20:36:57.108Z,9.50
2022-11-16T20:39:27.976Z,9.50
2022-11-16T20:41:58.910Z,9.50
2022-11-16T20:44:30.999Z,9.50
2022-11-16T20:47:01.888Z,9.40
2022-11-16T20:49:32.799Z,9.50
2022-11-16T20:52:03.808Z,9.50
2022-11-16T20:54:34.657Z,9.50
2022-11-16T20:57:05.578Z,9.50
2022-11-16T20:59:36.445Z,9.30
2022-11-16T21:02:10.043Z,9.30
2022-11-16T21:04:40.890Z,9.20
2022-11-16T21:07:12.378Z,9.10
2022-11-16T21:10:01.712Z,9.10
2022-11-16T21:12:51.040Z,9.00
2022-11-16T21:15:21.911Z,9.00
2022-11-16T21:17:52.741Z,9.00
2022-11-16T21:20:28.179Z,9.50
2022-11-16T21:22:59.563Z,9.50
2022-11-16T21:25:30.450Z,9.20
2022-11-16T21:28:01.338Z,9.30
2022-11-16T21:30:32.203Z,9.20
2022-11-16T21:33:03.072Z,9.20
2022-11-16T21:35:34.318Z,9.30
2022-11-16T21:38:05.149Z,9.20
2022-11-16T21:40:36.141Z,9.10
2022-11-16T21:43:07.003Z,9.10
2022-11-16T21:45:37.890Z,9.10
2022-11-16T21:48:08.846Z,9.10
2022-11-16T21:50:40.204Z,9.00
2022-11-16T21:53:11.103Z,9.00
2022-11-16T21:55:49.842Z,9.00
2022-11-16T21:58:20.719Z,9.00
2022-11-16T22:00:56.771Z,9.00
2022-11-16T22:03:32.321Z,9.10
2022-11-16T22:06:25.501Z,9.00
2022-11-16T22:08:56.379Z,9.00
2022-11-16T22:11:27.331Z,9.00
2022-11-16T22:13:58.199Z,9.00
2022-11-16T22:16:29.105Z,9.00
2022-11-16T22:19:00.087Z,9.00
2022-11-16T22:21:30.987Z,9.10
2022-11-16T22:24:02.669Z,9.00
2022-11-16T22:26:33.733Z,8.80
2022-11-16T22:29:04.563Z,9.00
2022-11-16T22:31:36.392Z,9.00
2022-11-16T22:34:07.259Z,8.90
2022-11-16T22:36:38.360Z,8.90
2022-11-16T22:39:09.314Z,9.00
2022-11-16T22:41:40.191Z,9.00
2022-11-16T22:44:11.041Z,9.10
2022-11-16T22:46:41.953Z,9.10
2022-11-16T22:49:12.794Z,9.10
2022-11-16T22:51:43.726Z,9.10
2022-11-16T22:54:15.695Z,9.20
2022-11-16T22:56:47.726Z,9.30
2022-11-16T22:59:18.596Z,9.30
2022-11-16T23:01:49.475Z,9.40
2022-11-16T23:04:20.314Z,9.40
2022-11-16T23:06:51.244Z,9.50
2022-11-16T23:09:22.125Z,9.40
2022-11-16T23:12:11.578Z,9.40
2022-11-16T23:15:00.712Z,9.40
2022-11-16T23:17:31.640Z,9.40
2022-11-16T23:20:20.959Z,9.40
2022-11-16T23:23:10.386Z,9.30
2022-11-16T23:25:59.956Z,9.40
2022-11-16T23:28:30.845Z,9.50
2022-11-16T23:31:01.719Z,9.40
2022-11-16T23:33:44.355Z,9.30
2022-11-16T23:36:15.371Z,9.30
2022-11-16T23:38:46.201Z,9.30
2022-11-16T23:41:35.791Z,9.30
2022-11-16T23:44:06.703Z,9.30
2022-11-16T23:46:37.569Z,9.40
2022-11-16T23:49:08.416Z,9.40
2022-11-16T23:51:39.287Z,9.40
2022-11-16T23:54:10.163Z,9.40
2022-11-16T23:56:41.034Z,9.40
2022-11-16T23:59:11.890Z,9.40
